Terminal Aerodrome Forecast
Issued by NWS

Home | Current Version | Previous Version | Text Only | Print | Product List | Glossary On
Versions: 1 2 3 4 5 6 7 8 9 10 11 12 13 14 15 16 17 18
000
FTUS43 KGRB 311600 AAA
TAFRHI
TAF AMD
KRHI 311623Z 3116/0112 03014G24KT P6SM SCT028 BKN035
      TEMPO 3117/3121 BKN028
     FM312100 35009G16KT P6SM SCT022 BKN035
     FM312200 34007KT P6SM SCT022 BKN035
     FM010200 34004KT P6SM SCT020=

USA.gov is the U.S. government's official web portal to all federal, state and local government web resources and services.